Time;durP1;ratioP1;P1;durP2;ratioP2;P2;SDS_P1;SDS_P2;PMS_P1;PMS_P2;Temp;Humidity;BMP_temperature;BMP_pressure;BME280_temperature;BME280_humidity;BME280_pressure;Samples;Min_cycle;Max_cycle;Signal;HPM_P1;HPM_P2
2021/04/21 00:00:10;;;;;;;43.20;31.17;;;;;;;6.23;95.69;95868.47;1027584;28;20027;-63
2021/04/21 00:00:41;;;;;;;42.72;30.90;;;;;;;6.23;96.18;95863.16;1025505;28;20683;-63
2021/04/21 00:01:11;;;;;;;45.57;31.53;;;;;;;6.27;95.55;95870.66;1020384;28;20478;-63
2021/04/21 00:01:43;;;;;;;43.37;31.57;;;;;;;6.22;95.80;95856.25;1024089;28;20031;-63
2021/04/21 00:02:14;;;;;;;44.08;32.03;;;;;;;6.20;96.05;95860.22;1031674;28;20033;-64
2021/04/21 00:02:45;;;;;;;42.72;32.20;;;;;;;6.22;96.17;95861.56;1035234;28;20037;-62
2021/04/21 00:03:16;;;;;;;45.83;31.70;;;;;;;6.25;95.81;95863.75;1040125;28;20042;-63
2021/04/21 00:03:47;;;;;;;44.47;32.67;;;;;;;6.24;95.78;95856.84;1043699;28;20493;-63
2021/04/21 00:04:17;;;;;;;44.90;33.97;;;;;;;6.28;95.98;95859.00;1039610;28;20030;-63
2021/04/21 00:04:48;;;;;;;44.13;32.90;;;;;;;6.27;95.95;95855.53;1032151;28;20018;-63
2021/04/21 00:05:19;;;;;;;45.63;32.45;;;;;;;6.27;95.85;95854.72;1027644;28;20447;-63
2021/04/21 00:05:50;;;;;;;43.03;32.80;;;;;;;6.24;95.32;95848.88;1028099;28;20540;-63
2021/04/21 00:06:20;;;;;;;46.00;32.90;;;;;;;6.24;95.36;95862.16;1031924;28;20030;-63
2021/04/21 00:06:51;;;;;;;46.77;34.27;;;;;;;6.23;95.30;95849.91;1035644;28;20018;-62
2021/04/21 00:07:22;;;;;;;45.67;33.47;;;;;;;6.23;95.19;95855.22;1039855;28;20026;-63
2021/04/21 00:07:53;;;;;;;42.60;31.93;;;;;;;6.22;95.40;95856.25;1039727;28;20056;-63
2021/04/21 00:08:24;;;;;;;44.65;33.00;;;;;;;6.17;95.28;95858.84;1035947;28;20298;-63
2021/04/21 00:08:54;;;;;;;46.03;33.38;;;;;;;6.18;95.37;95854.34;1027856;28;20029;-63
2021/04/21 00:09:24;;;;;;;47.93;33.40;;;;;;;6.14;95.45;95850.56;1027701;28;20023;-62
2021/04/21 00:09:55;;;;;;;45.30;31.63;;;;;;;6.13;95.43;95855.06;1027579;28;20019;-63
2021/04/21 00:10:26;;;;;;;46.00;33.30;;;;;;;6.09;95.58;95851.31;1027798;28;20483;-63
2021/04/21 00:10:57;;;;;;;45.67;33.83;;;;;;;6.07;95.85;95856.06;1035591;28;21033;-62
2021/04/21 00:11:28;;;;;;;42.83;32.33;;;;;;;6.03;95.76;95846.97;1031687;28;20038;-63
2021/04/21 00:11:58;;;;;;;47.63;31.67;;;;;;;6.03;95.80;95852.28;1031606;28;20065;-62
2021/04/21 00:12:29;;;;;;;44.60;32.97;;;;;;;5.99;96.16;95851.19;1027610;28;20026;-63
2021/04/21 00:12:59;;;;;;;45.50;32.57;;;;;;;6.03;96.08;95846.97;1027832;28;20474;-63
2021/04/21 00:13:30;;;;;;;41.97;31.93;;;;;;;6.04;96.32;95848.59;1035618;28;20018;-63
2021/04/21 00:14:00;;;;;;;44.00;31.43;;;;;;;6.02;96.32;95848.03;1031399;28;20026;-63
2021/04/21 00:14:31;;;;;;;41.50;31.40;;;;;;;6.01;96.44;95849.09;1031723;28;20033;-63
2021/04/21 00:15:01;;;;;;;46.40;32.40;;;;;;;5.93;96.17;95844.97;1035715;28;20462;-63
2021/04/21 00:15:31;;;;;;;48.23;32.60;;;;;;;5.91;96.61;95844.44;1034220;28;20134;-63
2021/04/21 00:16:02;;;;;;;42.73;31.97;;;;;;;5.94;96.48;95851.13;1035679;28;20093;-63
2021/04/21 00:16:33;;;;;;;45.80;32.77;;;;;;;5.91;96.81;95847.09;1039780;28;20350;-63
2021/04/21 00:17:03;;;;;;;45.03;32.30;;;;;;;5.91;96.35;95844.44;1035601;28;20383;-63
2021/04/21 00:17:34;;;;;;;43.27;32.47;;;;;;;5.91;96.55;95849.75;1031683;28;20022;-63
2021/04/21 00:18:05;;;;;;;44.40;33.37;;;;;;;5.93;96.48;95846.84;1027568;28;20026;-63
2021/04/21 00:18:36;;;;;;;47.63;34.78;;;;;;;5.95;95.83;95844.75;1031569;28;20014;-63
2021/04/21 00:19:07;;;;;;;45.93;34.33;;;;;;;5.94;95.86;95856.41;1031579;28;20038;-62
2021/04/21 00:19:37;;;;;;;45.23;33.13;;;;;;;5.90;96.13;95842.81;1028312;28;20337;-63
2021/04/21 00:20:08;;;;;;;46.20;33.77;;;;;;;5.90;96.32;95855.25;1031745;28;20033;-63
2021/04/21 00:20:38;;;;;;;46.50;34.27;;;;;;;5.89;96.15;95846.50;1031884;28;20037;-63
2021/04/21 00:21:09;;;;;;;44.73;33.80;;;;;;;5.88;96.10;95849.38;1031810;28;20026;-63
2021/04/21 00:21:39;;;;;;;47.43;33.63;;;;;;;5.88;96.25;95852.03;1035531;28;20108;-63
2021/04/21 00:22:10;;;;;;;45.63;33.87;;;;;;;5.87;96.18;95850.44;1035612;28;20479;-63
2021/04/21 00:22:41;;;;;;;45.57;33.37;;;;;;;5.86;96.15;95839.03;1031823;28;20428;-63
2021/04/21 00:23:11;;;;;;;47.05;34.47;;;;;;;5.81;96.08;95851.41;1027624;28;20440;-63
2021/04/21 00:23:42;;;;;;;46.30;33.83;;;;;;;5.79;96.50;95849.00;1023854;28;20023;-64
2021/04/21 00:24:13;;;;;;;43.83;32.00;;;;;;;5.81;96.65;95848.75;1020058;28;20034;-63
2021/04/21 00:24:44;;;;;;;48.00;31.77;;;;;;;5.73;96.78;95855.25;1025662;28;20425;-63
2021/04/21 00:25:14;;;;;;;44.60;32.87;;;;;;;5.68;97.09;95844.56;1027867;28;20472;-63
2021/04/21 00:25:45;;;;;;;50.10;32.80;;;;;;;5.69;97.25;95848.84;1028042;28;20378;-63
2021/04/21 00:26:16;;;;;;;48.90;33.50;;;;;;;5.70;97.44;95855.75;1035721;28;20569;-63
2021/04/21 00:26:47;;;;;;;44.00;32.78;;;;;;;5.72;97.01;95846.50;1031905;28;20043;-63
2021/04/21 00:27:18;;;;;;;44.60;33.93;;;;;;;5.70;97.18;95845.16;1031762;28;20031;-63
2021/04/21 00:27:50;;;;;;;43.70;32.50;;;;;;;5.71;96.96;95846.75;1027615;28;20023;-63
2021/04/21 00:28:24;;;;;;;44.35;32.22;;;;;;;5.70;96.93;95848.59;1025386;28;20110;-63
2021/04/21 00:28:55;;;;;;;45.47;32.53;;;;;;;5.70;96.97;95851.25;1029273;28;20018;-64
2021/04/21 00:29:25;;;;;;;44.20;32.07;;;;;;;5.68;96.80;95849.88;1037343;28;20033;-63
2021/04/21 00:29:58;;;;;;;48.67;33.67;;;;;;;5.67;97.25;95842.97;1035638;28;20029;-63
2021/04/21 00:30:29;;;;;;;45.53;32.30;;;;;;;5.61;97.23;95843.94;1031388;28;20029;-63
2021/04/21 00:31:01;;;;;;;48.10;33.77;;;;;;;5.63;97.46;95847.16;1027448;28;20071;-63
2021/04/21 00:31:32;;;;;;;43.22;32.72;;;;;;;5.65;97.37;95842.44;1031290;28;20376;-63
2021/04/21 00:32:02;;;;;;;46.00;32.93;;;;;;;5.65;97.34;95839.78;1031293;28;20034;-63
2021/04/21 00:32:45;;;;;;;46.07;33.97;;;;;;;5.61;97.29;95844.75;1028340;28;20427;-64
2021/04/21 00:33:16;;;;;;;48.35;33.88;;;;;;;5.53;97.38;95842.53;1033447;28;20054;-63
2021/04/21 00:33:51;;;;;;;44.95;32.90;;;;;;;5.51;97.54;95847.25;1029420;28;20042;-63
2021/04/21 00:34:21;;;;;;;44.22;32.13;;;;;;;5.58;97.47;95841.75;1027425;28;20034;-63
2021/04/21 00:34:51;;;;;;;44.43;31.07;;;;;;;5.61;97.31;95836.00;1031159;28;20038;-64
2021/04/21 00:35:35;;;;;;;41.20;32.07;;;;;;;5.63;97.21;95837.38;1028761;28;20071;-63
2021/04/21 00:36:06;;;;;;;46.00;32.63;;;;;;;5.65;97.27;95837.13;1031649;28;20382;-63
2021/04/21 00:36:36;;;;;;;43.43;33.13;;;;;;;5.64;97.20;95844.28;1029398;28;20106;-63
2021/04/21 00:37:07;;;;;;;43.87;31.53;;;;;;;5.64;96.93;95844.28;1035433;28;20018;-63
2021/04/21 00:37:37;;;;;;;47.73;34.50;;;;;;;5.67;97.02;95835.81;1039936;28;20017;-63
2021/04/21 00:38:09;;;;;;;46.37;33.33;;;;;;;5.68;96.89;95833.97;1043971;28;20021;-64
2021/04/21 00:38:40;;;;;;;49.88;35.05;;;;;;;5.70;96.65;95840.66;1039747;28;20021;-63
2021/04/21 00:39:10;;;;;;;49.23;35.73;;;;;;;5.69;96.38;95836.41;1031525;28;20022;-63
2021/04/21 00:39:42;;;;;;;47.13;34.17;;;;;;;5.66;96.51;95842.19;1027862;28;20035;-63
2021/04/21 00:40:15;;;;;;;47.60;34.30;;;;;;;5.67;96.28;95835.03;1027763;28;20026;-64
2021/04/21 00:40:57;;;;;;;44.55;32.72;;;;;;;5.66;96.15;95844.81;1028939;28;20027;-64
2021/04/21 00:41:33;;;;;;;42.90;32.05;;;;;;;5.66;96.18;95836.88;1029777;28;20525;-64
2021/04/21 00:42:12;;;;;;;44.22;32.08;;;;;;;5.61;96.63;95838.66;1030317;28;20026;-63
2021/04/21 00:42:49;;;;;;;43.65;31.90;;;;;;;5.63;96.47;95832.06;1035559;28;20026;-63
2021/04/21 00:43:46;;;;;;;43.28;31.95;;;;;;;5.66;96.55;95839.53;1042393;28;20496;-64
2021/04/21 00:44:45;;;;;;;42.38;30.70;;;;;;;5.65;96.46;95837.94;1039682;28;20105;-63
2021/04/21 00:45:17;;;;;;;50.35;32.50;;;;;;;5.59;96.95;95838.09;1039582;28;20109;-63
2021/04/21 00:45:49;;;;;;;44.70;31.77;;;;;;;5.61;96.94;95838.66;1040362;28;20433;-63
2021/04/21 00:46:31;;;;;;;43.95;31.67;;;;;;;5.64;96.82;95833.66;1035615;28;20060;-63
2021/04/21 00:47:03;;;;;;;49.08;34.53;;;;;;;5.66;96.81;95836.06;1031667;28;20037;-63
2021/04/21 00:47:35;;;;;;;45.97;33.17;;;;;;;5.67;96.76;95835.81;1025699;28;20069;-63
2021/04/21 00:48:26;;;;;;;50.00;35.05;;;;;;;5.64;96.32;95836.31;1021344;29;20404;-63
2021/04/21 00:49:34;;;;;;;45.67;32.75;;;;;;;5.65;96.10;95837.13;1022726;29;20043;-63
2021/04/21 00:50:11;;;;;;;44.35;32.45;;;;;;;5.61;96.02;95828.84;1027579;28;20039;-63
2021/04/21 00:50:59;;;;;;;48.83;33.47;;;;;;;5.59;96.30;95830.94;1027848;28;20114;-63
2021/04/21 00:52:05;;;;;;;46.78;31.83;;;;;;;5.55;96.89;95835.13;1029188;28;20445;-63
2021/04/21 00:52:49;;;;;;;52.30;33.28;;;;;;;5.56;96.51;95827.97;1032993;28;20038;-63
2021/04/21 00:53:33;;;;;;;46.30;33.30;;;;;;;5.56;96.70;95828.75;1034082;28;20022;-63
2021/04/21 00:54:13;;;;;;;43.47;32.88;;;;;;;5.55;96.51;95827.16;1035642;28;20060;-63
2021/04/21 00:55:09;;;;;;;45.78;32.78;;;;;;;5.51;96.63;95826.03;1032222;28;20073;-63
2021/04/21 00:55:46;;;;;;;48.28;32.60;;;;;;;5.53;97.23;95823.97;1036379;28;20026;-63
2021/04/21 00:56:44;;;;;;;46.58;31.98;;;;;;;5.56;97.39;95834.06;1029159;28;20055;-63
2021/04/21 00:57:51;;;;;;;45.47;31.95;;;;;;;5.53;97.44;95828.44;1032283;28;20030;-63
2021/04/21 00:58:41;;;;;;;48.85;32.58;;;;;;;5.56;97.21;95833.25;1036094;28;20041;-63
2021/04/21 00:59:37;;;;;;;48.38;31.25;;;;;;;5.57;96.89;95824.25;1032341;28;20523;-63
2021/04/21 01:00:17;;;;;;;44.42;31.85;;;;;;;5.55;96.99;95834.31;1030301;28;20023;-63
2021/04/21 01:00:47;;;;;;;47.50;32.80;;;;;;;5.50;96.82;95831.59;1033848;28;20508;-64
2021/04/21 01:01:18;;;;;;;48.93;34.13;;;;;;;5.51;96.90;95833.19;1036397;28;20029;-63
2021/04/21 01:01:48;;;;;;;44.70;32.13;;;;;;;5.51;97.05;95833.19;1035420;28;20053;-63
2021/04/21 01:02:23;;;;;;;46.13;31.23;;;;;;;5.50;96.55;95834.22;1036327;28;20033;-63
2021/04/21 01:03:11;;;;;;;47.38;31.77;;;;;;;5.46;96.71;95828.59;1032571;28;20046;-63
2021/04/21 01:03:42;;;;;;;45.65;30.45;;;;;;;5.47;96.90;95838.16;1028317;28;20031;-63
2021/04/21 01:04:12;;;;;;;52.00;32.53;;;;;;;5.44;96.86;95828.06;1023156;28;20389;-63
2021/04/21 01:04:43;;;;;;;47.73;33.13;;;;;;;5.43;96.94;95831.75;1022259;29;20028;-63
2021/04/21 01:05:16;;;;;;;45.90;31.03;;;;;;;5.44;96.91;95833.34;1026560;28;20023;-63
2021/04/21 01:05:50;;;;;;;49.13;32.45;;;;;;;5.46;96.65;95836.56;1029197;28;20492;-63
2021/04/21 01:06:26;;;;;;;47.95;32.10;;;;;;;5.44;97.11;95828.84;1033937;28;20019;-63
2021/04/21 01:06:56;;;;;;;47.80;31.95;;;;;;;5.46;96.91;95832.06;1036348;28;20026;-63
2021/04/21 01:07:27;;;;;;;45.73;31.63;;;;;;;5.49;97.02;95838.75;1032304;28;20101;-63
2021/04/21 01:07:59;;;;;;;44.13;31.30;;;;;;;5.52;96.74;95838.25;1024931;28;20027;-63
2021/04/21 01:08:37;;;;;;;46.70;30.50;;;;;;;5.50;96.67;95835.03;1024944;28;20055;-63
2021/04/21 01:09:08;;;;;;;46.15;31.17;;;;;;;5.51;96.80;95836.63;1029637;28;20069;-63
2021/04/21 01:09:39;;;;;;;41.47;29.90;;;;;;;5.50;96.46;95832.38;1035044;28;20026;-62
2021/04/21 01:10:10;;;;;;;48.43;31.20;;;;;;;5.51;96.59;95827.88;1033541;28;20113;-63
2021/04/21 01:10:43;;;;;;;45.35;31.77;;;;;;;5.48;96.79;95837.94;1032224;28;20026;-62
2021/04/21 01:11:28;;;;;;;47.95;32.53;;;;;;;5.44;96.18;95833.34;1028206;28;20054;-63
2021/04/21 01:12:02;;;;;;;44.53;30.83;;;;;;;5.38;96.67;95839.63;1036406;28;20044;-63
2021/04/21 01:12:32;;;;;;;44.30;30.75;;;;;;;5.34;96.82;95836.66;1028051;28;20030;-63
2021/04/21 01:13:03;;;;;;;44.63;30.33;;;;;;;5.32;96.60;95840.56;1032244;28;20033;-63
2021/04/21 01:13:37;;;;;;;45.13;31.33;;;;;;;5.31;96.95;95841.59;1028291;28;20508;-63
2021/04/21 01:14:11;;;;;;;47.38;31.08;;;;;;;5.22;96.87;95838.56;1028047;28;20484;-63
2021/04/21 01:14:44;;;;;;;44.28;31.38;;;;;;;5.18;97.36;95835.59;1025178;28;20019;-63
2021/04/21 01:15:16;;;;;;;45.33;31.30;;;;;;;5.15;97.27;95837.91;1027158;28;20027;-63
2021/04/21 01:15:47;;;;;;;46.28;31.23;;;;;;;5.12;97.56;95844.50;1033654;28;20047;-63
2021/04/21 01:16:20;;;;;;;45.22;32.85;;;;;;;5.09;97.75;95836.22;1032193;28;20033;-63
2021/04/21 01:16:56;;;;;;;51.13;33.25;;;;;;;5.05;98.25;95835.88;1032975;28;20472;-63
2021/04/21 01:17:26;;;;;;;47.42;32.67;;;;;;;5.02;97.95;95835.56;1037610;28;20054;-63
2021/04/21 01:17:57;;;;;;;47.07;32.10;;;;;;;5.02;98.44;95846.97;1033375;28;20030;-63
2021/04/21 01:18:27;;;;;;;44.07;32.20;;;;;;;4.98;98.47;95837.88;1028163;28;20019;-63
2021/04/21 01:19:01;;;;;;;45.97;31.97;;;;;;;4.97;98.67;95841.59;1024112;29;20075;-63
2021/04/21 01:19:50;;;;;;;45.58;32.45;;;;;;;4.93;99.09;95835.94;1031869;28;20026;-63
2021/04/21 01:20:29;;;;;;;44.30;31.60;;;;;;;4.90;99.11;95840.91;1035313;28;20038;-63
2021/04/21 01:21:04;;;;;;;47.58;32.17;;;;;;;4.88;99.27;95837.72;1040401;28;20509;-63
2021/04/21 01:21:43;;;;;;;47.00;32.30;;;;;;;4.84;99.73;95834.72;1036188;28;20037;-63
2021/04/21 01:22:37;;;;;;;48.05;32.00;;;;;;;4.82;99.58;95834.16;1032225;28;20034;-63
2021/04/21 01:23:50;;;;;;;47.78;32.00;;;;;;;4.80;99.65;95832.78;1032683;28;20325;-63
2021/04/21 01:24:43;;;;;;;46.17;31.02;;;;;;;4.84;99.74;95836.56;1040210;28;20407;-63
2021/04/21 01:25:28;;;;;;;44.92;30.55;;;;;;;4.83;100.00;95833.13;1036195;28;20494;-63
2021/04/21 01:26:10;;;;;;;46.20;30.15;;;;;;;4.84;100.00;95839.22;1032962;28;20118;-63
2021/04/21 01:26:58;;;;;;;48.97;33.13;;;;;;;4.89;100.00;95826.06;1036224;28;20108;-63
2021/04/21 01:27:50;;;;;;;44.35;32.00;;;;;;;4.90;99.94;95835.59;1036215;28;20399;-62
2021/04/21 01:28:22;;;;;;;44.38;30.70;;;;;;;4.93;100.00;95838.59;1040352;28;20033;-63
2021/04/21 01:28:54;;;;;;;46.47;31.33;;;;;;;4.94;99.93;95831.44;1036257;28;20022;-63
2021/04/21 01:29:35;;;;;;;44.88;31.58;;;;;;;4.98;99.33;95831.78;1027162;28;20103;-63
2021/04/21 01:30:06;;;;;;;43.85;30.35;;;;;;;5.01;99.50;95828.66;1020057;29;20019;-63
2021/04/21 01:30:39;;;;;;;42.17;30.10;;;;;;;5.01;99.15;95826.78;1024154;29;20035;-63
2021/04/21 01:31:10;;;;;;;46.55;32.35;;;;;;;5.00;99.43;95833.16;1024201;28;20019;-63
2021/04/21 01:31:40;;;;;;;44.60;31.07;;;;;;;5.03;99.02;95835.31;1024202;29;20074;-63
2021/04/21 01:32:14;;;;;;;44.83;31.53;;;;;;;5.05;99.09;95835.88;1024215;29;20019;-63
2021/04/21 01:32:46;;;;;;;43.85;30.55;;;;;;;5.06;98.78;95832.19;1024375;28;20019;-63
2021/04/21 01:33:18;;;;;;;48.67;30.48;;;;;;;5.08;98.64;95837.25;1020911;29;20524;-63
2021/04/21 01:33:50;;;;;;;40.95;30.10;;;;;;;5.10;98.52;95830.66;1022177;28;20028;-63
2021/04/21 01:34:22;;;;;;;47.45;31.15;;;;;;;5.09;98.44;95829.06;1020902;29;20042;-63
2021/04/21 01:34:54;;;;;;;41.10;29.15;;;;;;;5.10;98.21;95838.63;1021752;28;20030;-63
2021/04/21 01:35:24;;;;;;;45.55;30.95;;;;;;;5.11;98.47;95832.28;1024661;28;20047;-63
2021/04/21 01:36:02;;;;;;;40.87;30.07;;;;;;;5.12;98.18;95833.91;1024255;28;20019;-63
2021/04/21 01:36:32;;;;;;;48.88;31.65;;;;;;;5.13;98.15;95832.84;1024098;29;20023;-63
2021/04/21 01:37:04;;;;;;;47.63;31.13;;;;;;;5.10;98.17;95835.97;1025145;28;20473;-63
2021/04/21 01:37:35;;;;;;;51.45;32.55;;;;;;;5.07;98.26;95836.47;1029226;28;20031;-63
2021/04/21 01:38:05;;;;;;;43.65;30.30;;;;;;;5.02;98.08;95831.06;1028873;28;20143;-63
2021/04/21 01:38:37;;;;;;;45.40;30.03;;;;;;;4.99;98.13;95826.25;1032438;28;20093;-63
2021/04/21 01:39:07;;;;;;;43.28;30.83;;;;;;;4.95;98.12;95831.22;1032205;28;20033;-63
2021/04/21 01:39:41;;;;;;;48.40;30.90;;;;;;;4.93;98.10;95825.34;1028326;28;20118;-63
2021/04/21 01:40:15;;;;;;;46.40;31.98;;;;;;;4.91;98.17;95834.56;1032161;28;20035;-64
2021/04/21 01:40:45;;;;;;;49.30;32.28;;;;;;;4.84;98.62;95839.22;1033192;28;20037;-64
2021/04/21 01:41:17;;;;;;;48.10;32.77;;;;;;;4.82;98.81;95836.00;1029038;28;20441;-63
2021/04/21 01:41:51;;;;;;;46.38;31.92;;;;;;;4.79;99.15;95839.13;1028031;28;20022;-63
2021/04/21 01:42:23;;;;;;;46.55;32.13;;;;;;;4.72;99.25;95835.81;1024197;28;20114;-63
2021/04/21 01:42:55;;;;;;;45.63;32.95;;;;;;;4.67;99.54;95832.03;1026023;28;20082;-64
2021/04/21 01:43:32;;;;;;;48.58;31.88;;;;;;;4.66;100.00;95827.00;1033128;28;20510;-63
2021/04/21 01:44:06;;;;;;;50.35;32.30;;;;;;;4.61;99.93;95835.63;1036385;28;20443;-63
2021/04/21 01:44:40;;;;;;;46.78;31.38;;;;;;;4.60;100.00;95830.56;1040267;28;20034;-63
2021/04/21 01:45:12;;;;;;;49.72;32.22;;;;;;;4.58;100.00;95828.16;1036177;28;20221;-63
2021/04/21 01:45:42;;;;;;;47.25;32.38;;;;;;;4.59;100.00;95826.31;1036205;28;20081;-63
2021/04/21 01:46:14;;;;;;;48.87;33.00;;;;;;;4.56;100.00;95824.16;1035022;28;20155;-63
2021/04/21 01:46:47;;;;;;;47.00;31.73;;;;;;;4.63;100.00;95828.25;1034298;28;20399;-63
2021/04/21 01:47:20;;;;;;;44.15;30.70;;;;;;;4.67;99.97;95832.03;1031915;28;20117;-63
2021/04/21 01:47:50;;;;;;;44.92;30.30;;;;;;;4.69;100.00;95829.94;1031819;28;20113;-63
2021/04/21 01:48:24;;;;;;;45.80;30.20;;;;;;;4.73;100.00;95819.69;1032113;28;20504;-63
2021/04/21 01:49:22;;;;;;;44.63;30.10;;;;;;;4.73;99.88;95829.47;1033070;28;20379;-63
2021/04/21 01:50:08;;;;;;;45.33;29.05;;;;;;;4.70;99.96;95826.25;1032108;28;20427;-63
2021/04/21 01:50:38;;;;;;;45.47;29.92;;;;;;;4.70;99.74;95823.59;1033770;28;20037;-63
2021/04/21 01:51:13;;;;;;;44.40;30.20;;;;;;;4.71;99.77;95824.44;1036234;28;20029;-63
2021/04/21 01:51:44;;;;;;;43.88;29.67;;;;;;;4.72;99.82;95825.22;1040086;28;20029;-63
2021/04/21 01:52:31;;;;;;;40.37;29.53;;;;;;;4.72;99.37;95826.03;1032233;28;20018;-64
2021/04/21 01:53:33;;;;;;;43.25;29.98;;;;;;;4.75;99.61;95832.69;1032212;28;20034;-63
2021/04/21 01:54:12;;;;;;;47.65;31.05;;;;;;;4.75;99.40;95830.03;1034282;28;20046;-63
2021/04/21 01:54:43;;;;;;;49.15;30.88;;;;;;;4.77;99.09;95831.44;1033454;28;20026;-63
2021/04/21 01:55:19;;;;;;;43.50;31.60;;;;;;;4.78;99.45;95827.72;1032170;28;20033;-63
2021/04/21 01:56:03;;;;;;;44.38;30.65;;;;;;;4.78;99.58;95830.38;1032122;28;20037;-63
2021/04/21 01:56:43;;;;;;;48.33;32.78;;;;;;;4.76;99.97;95829.81;1035726;28;20486;-63
2021/04/21 01:57:23;;;;;;;44.90;30.15;;;;;;;4.79;100.00;95833.81;1032321;28;20061;-64
2021/04/21 01:58:16;;;;;;;43.80;29.75;;;;;;;4.77;100.00;95830.63;1024086;29;20027;-63
2021/04/21 01:59:24;;;;;;;46.72;30.50;;;;;;;4.79;100.00;95825.88;1028112;28;20030;-63
2021/04/21 01:59:57;;;;;;;41.28;28.95;;;;;;;4.83;99.46;95832.31;1036228;28;20030;-63
2021/04/21 02:00:53;;;;;;;49.08;30.17;;;;;;;4.85;99.14;95835.53;1031850;28;20026;-64
2021/04/21 02:01:32;;;;;;;48.45;31.20;;;;;;;4.85;99.05;95830.22;1026807;28;20497;-63
2021/04/21 02:02:19;;;;;;;45.58;31.58;;;;;;;4.84;98.87;95831.28;1033100;28;20026;-63
2021/04/21 02:02:55;;;;;;;48.97;32.42;;;;;;;4.83;98.62;95837.63;1036516;28;20034;-63
2021/04/21 02:03:37;;;;;;;46.15;32.05;;;;;;;4.84;98.72;95829.41;1031977;28;20026;-62
2021/04/21 02:04:27;;;;;;;44.97;31.00;;;;;;;4.82;98.77;95825.41;1032164;28;20026;-62
2021/04/21 02:05:16;;;;;;;43.65;30.83;;;;;;;4.80;98.79;95830.94;1032277;28;20022;-62
2021/04/21 02:06:25;;;;;;;44.75;30.20;;;;;;;4.81;98.52;95832.56;1028053;28;20030;-62
2021/04/21 02:07:34;;;;;;;46.25;29.58;;;;;;;4.79;98.65;95836.47;1030681;28;20070;-62
2021/04/21 02:08:13;;;;;;;43.90;29.77;;;;;;;4.84;98.50;95832.06;1031852;28;20062;-63
2021/04/21 02:09:15;;;;;;;45.38;30.60;;;;;;;4.86;98.22;95837.13;1031916;28;20034;-63
2021/04/21 02:09:54;;;;;;;43.58;30.58;;;;;;;4.79;98.49;95825.88;1032397;28;20038;-63
2021/04/21 02:10:53;;;;;;;43.75;30.80;;;;;;;4.78;98.23;95829.56;1025729;28;20043;-63
2021/04/21 02:11:25;;;;;;;44.65;31.23;;;;;;;4.78;98.69;95830.38;1026578;28;20044;-63
2021/04/21 02:12:13;;;;;;;44.05;32.35;;;;;;;4.81;98.51;95827.28;1028574;28;20035;-63
2021/04/21 02:12:55;;;;;;;48.83;33.80;;;;;;;4.77;98.92;95825.31;1031848;28;20027;-63
2021/04/21 02:13:32;;;;;;;45.67;32.72;;;;;;;4.78;98.96;95827.72;1032161;28;20498;-63
2021/04/21 02:14:41;;;;;;;50.13;34.85;;;;;;;4.80;98.64;95820.34;1032108;28;20022;-63
2021/04/21 02:15:33;;;;;;;46.40;31.85;;;;;;;4.76;98.95;95816.59;1034218;28;20048;-63
2021/04/21 02:16:13;;;;;;;47.38;31.85;;;;;;;4.72;98.92;95822.59;1032098;28;20066;-63
2021/04/21 02:16:54;;;;;;;46.75;32.22;;;;;;;4.72;98.91;95827.88;1032059;28;20058;-62
2021/04/21 02:17:56;;;;;;;50.22;33.60;;;;;;;4.73;98.93;95825.00;1033252;28;20033;-63
2021/04/21 02:18:57;;;;;;;47.92;33.20;;;;;;;4.73;98.66;95819.69;1039584;28;20498;-63
2021/04/21 02:19:49;;;;;;;50.17;32.70;;;;;;;4.72;98.50;95825.22;1035784;28;20454;-63
2021/04/21 02:20:28;;;;;;;45.83;32.90;;;;;;;4.73;98.45;95824.19;1036110;28;20153;-63
2021/04/21 02:21:03;;;;;;;52.35;33.95;;;;;;;4.74;98.38;95823.13;1030366;28;20030;-63
2021/04/21 02:21:48;;;;;;;47.10;33.20;;;;;;;4.73;98.33;95825.00;1031917;28;20058;-63
2021/04/21 02:22:49;;;;;;;45.42;33.20;;;;;;;4.73;98.47;95826.84;1027867;28;20031;-63
2021/04/21 02:23:39;;;;;;;46.35;33.70;;;;;;;4.75;98.29;95820.25;1030210;28;20038;-63
2021/04/21 02:24:27;;;;;;;47.15;32.20;;;;;;;4.70;98.88;95825.44;1036984;28;20430;-63
2021/04/21 02:25:26;;;;;;;49.00;32.88;;;;;;;4.68;98.51;95830.19;1040201;28;20033;-63
2021/04/21 02:25:57;;;;;;;44.08;31.38;;;;;;;4.66;98.87;95833.09;1038392;28;20423;-63
2021/04/21 02:26:40;;;;;;;43.57;30.97;;;;;;;4.67;98.39;95826.75;1036020;28;20018;-63
2021/04/21 02:27:33;;;;;;;45.15;32.00;;;;;;;4.54;98.92;95824.38;1032003;28;20026;-63
2021/04/21 02:28:14;;;;;;;46.38;31.25;;;;;;;4.54;98.76;95818.25;1028534;28;20077;-63
2021/04/21 02:29:00;;;;;;;48.90;31.90;;;;;;;4.53;98.90;95827.25;1032324;28;20105;-63
2021/04/21 02:29:39;;;;;;;44.63;31.33;;;;;;;4.54;98.96;95824.38;1035882;28;20038;-63
2021/04/21 02:30:18;;;;;;;45.80;30.17;;;;;;;4.53;98.62;95825.41;1032080;28;20019;-63
2021/04/21 02:30:52;;;;;;;44.47;30.58;;;;;;;4.49;98.82;95832.19;1029035;28;20539;-63
2021/04/21 02:31:29;;;;;;;48.22;32.70;;;;;;;4.47;99.37;95826.34;1031720;28;20438;-63
2021/04/21 02:32:04;;;;;;;45.05;31.38;;;;;;;4.48;99.18;95827.94;1037912;28;20028;-63
2021/04/21 02:32:47;;;;;;;46.28;31.88;;;;;;;4.43;98.92;95823.38;1036421;28;20025;-63
2021/04/21 02:33:41;;;;;;;44.08;30.88;;;;;;;4.50;99.10;95830.34;1032110;28;20030;-63
2021/04/21 02:34:35;;;;;;;48.15;32.08;;;;;;;4.51;98.93;95822.19;1024971;28;20476;-63
2021/04/21 02:35:09;;;;;;;49.33;34.75;;;;;;;4.51;98.86;95830.16;1029620;28;20023;-63
2021/04/21 02:35:48;;;;;;;46.88;33.35;;;;;;;4.52;98.63;95817.72;1028912;28;20019;-63
2021/04/21 02:36:41;;;;;;;50.35;35.85;;;;;;;4.52;98.88;95829.09;1031930;28;20097;-63
2021/04/21 02:37:31;;;;;;;48.97;35.42;;;;;;;4.54;98.91;95829.66;1032147;28;20085;-62
2021/04/21 02:38:23;;;;;;;47.78;34.33;;;;;;;4.58;98.81;95827.34;1029531;28;20019;-63
2021/04/21 02:38:55;;;;;;;49.05;34.53;;;;;;;4.56;98.70;95824.94;1035674;28;20128;-63
2021/04/21 02:39:52;;;;;;;50.22;34.70;;;;;;;4.51;98.72;95827.50;1031975;28;20034;-63
2021/04/21 02:40:30;;;;;;;54.83;35.47;;;;;;;4.53;99.33;95827.25;1036025;28;20033;-63
2021/04/21 02:41:18;;;;;;;51.25;34.40;;;;;;;4.51;99.03;95827.50;1036211;28;20394;-63
2021/04/21 02:41:59;;;;;;;44.03;31.15;;;;;;;4.55;98.96;95833.09;1035977;28;20049;-63
2021/04/21 02:42:38;;;;;;;48.22;32.95;;;;;;;4.57;98.95;95826.53;1031993;28;20399;-63
2021/04/21 02:43:18;;;;;;;48.78;32.90;;;;;;;4.56;99.37;95824.16;1031959;28;20018;-63
2021/04/21 02:44:16;;;;;;;46.97;33.47;;;;;;;4.58;99.03;95822.84;1039951;28;20083;-63
2021/04/21 02:45:25;;;;;;;47.53;31.67;;;;;;;4.55;99.00;95823.31;1040120;28;20037;-63
2021/04/21 02:46:26;;;;;;;48.50;33.65;;;;;;;4.56;99.19;95824.94;1039683;28;20556;-63
2021/04/21 02:47:15;;;;;;;53.58;33.28;;;;;;;4.48;99.32;95827.94;1039883;28;20482;-63
2021/04/21 02:48:15;;;;;;;48.33;32.40;;;;;;;4.42;99.18;95824.41;1039977;28;20037;-63
2021/04/21 02:49:22;;;;;;;48.47;30.38;;;;;;;4.33;98.90;95827.66;1038368;28;20034;-63
2021/04/21 02:50:19;;;;;;;45.28;28.73;;;;;;;4.27;98.59;95829.41;1035967;28;20025;-63
2021/04/21 02:50:55;;;;;;;43.03;29.67;;;;;;;4.26;98.71;95832.28;1036026;28;20026;-63
2021/04/21 02:51:34;;;;;;;44.10;31.05;;;;;;;4.22;99.38;95828.50;1028003;28;20023;-62
2021/04/21 02:52:18;;;;;;;45.88;31.17;;;;;;;4.22;99.50;95833.78;1031968;28;20539;-63
2021/04/21 02:53:00;;;;;;;49.90;31.58;;;;;;;4.20;99.39;95836.66;1031779;28;20026;-63
2021/04/21 02:53:56;;;;;;;46.70;31.00;;;;;;;4.21;100.00;95832.19;1027908;28;20520;-63
2021/04/21 02:54:32;;;;;;;46.83;30.73;;;;;;;4.22;99.95;95834.59;1028611;28;20110;-63
2021/04/21 02:55:06;;;;;;;46.85;32.33;;;;;;;4.20;100.00;95839.31;1033357;28;20023;-63
2021/04/21 02:55:51;;;;;;;51.20;32.53;;;;;;;4.22;99.84;95836.44;1040046;28;20112;-62
2021/04/21 02:56:42;;;;;;;42.92;28.30;;;;;;;4.14;99.39;95838.38;1040211;28;20176;-63
2021/04/21 02:57:21;;;;;;;40.22;27.95;;;;;;;4.07;98.80;95834.25;1039718;28;20068;-63
2021/04/21 02:58:12;;;;;;;39.03;28.35;;;;;;;4.04;99.34;95832.88;1035999;28;20025;-62
2021/04/21 02:59:13;;;;;;;43.83;29.10;;;;;;;4.07;100.00;95839.56;1035910;28;20387;-63
2021/04/21 02:59:45;;;;;;;42.35;29.50;;;;;;;4.11;99.80;95836.22;1039941;28;20433;-63